Airport View

Enter AWOS ICAO identifier for current METAR.

ex. KFNL

PFSH 261156Z AUTO 08007KT 10SM FEW060 OVC090 17/11 A3000 RMK AO2 RAE07B33E51 SLP159 6//// 7//// T01720111 10206 20167 51003 PNO $

26 Jun 2019 12:44

Frequency: 121.55

Phone: 907-955-3896

Other Area AWOS: PFEL - PAUN - PAKK - PAGL

TAF PAUN 261122Z 2612/2712 09008KT P6SM SCT050 BKN100 OVC200 FM270000 12010KT 6SM -RA BR SCT035 BKN050 OVC100 FM270600 09006KT 6SM -RA BR BKN025 BKN035 OVC050